Broken Bow, NE (68822)

5:01 PM CDT on August 27, 2015 (GMT -0500)
South of Town | | Change Station
CLOSE
Current Station
Personal Weather Station
Location: Broken Bow, NE
Elevation: 2523 ft
Nearby Weather Stations

Elev 2523 ft 41.38 °N, 99.64 °W | Updated 1 minute ago

Clear
Clear
83.4 °F
Feels Like 88 °F
N
8.0
Wind Variable Wind from SE
Gusts 8.0 mph

Today
High -- | Low -- °F
--% Chance of Precip.
Yesterday
High -- | Low -- °F
Precip. -- in
6:59 AM 8:19 PM
Waxing Gibbous, 95% visible
Pressure 29.79 in
Visibility 10.0 miles
Clouds Clear
Heat Index 88 °F
Dew Point 71 °F
Humidity 67%
Rainfall in
Snow Depth Not available.
UV 5 out of 12
Pollen 10.60 out of 12
Air Quality Not available.
Flu Activity Not available.
METAR KBBW 272153Z AUTO 13006KT 10SM CLR 28/21 A2987 RMK AO2 SLP088 T02830211
Pressure 29.79 in
Visibility 10.0 miles
Clouds Clear
Heat Index 88 °F
Dew Point 71 °F
Humidity 67%
Rainfall in
Snow Depth Not available.
UV 5 out of 12
Pollen 10.60 out of 12
Air Quality Not available.
Flu Activity Not available.
METAR KBBW 272153Z AUTO 13006KT 10SM CLR 28/21 A2987 RMK AO2 SLP088 T02830211

10-Day Weather Forecast

×

Almanac

Astronomy

Aug. 27, 2015 Rise Set
Actual Time
Civil Twilight
Nautical Twilight
Astronomical Twilight
Moon
Length of Visible Light
Length of Day
Tomorrow will be .
, % of the Moon is Illuminated

Today's Extremes

State Highs State Lows

Community

WunderPhotos

Upload Photos

1,850,246 photos uploaded!

WunderBlogs® & News

Nearby

Air Quality

  Air Quality AQ Index Pollutant
Not available.

Snow Depth

Station Depth Elevation

Earthquake Activity

City Distance Mag. Time & Date
Minimum magnitude displayed is 2.5.

Coastal Water Temperatures

Place Temperature

Stations

Nearby Weather Stations

Station Location Temp. Windchill Dew Point Humidity Wind Precip. Elev Updated Type